sensor_id;sensor_type;location;lat;lon;timestamp;P1;durP1;ratioP1;P2;durP2;ratioP2
7051;SDS011;3567;52.444;13.556;2023-04-30T00:00:28;5.03;;;1.40;;
7051;SDS011;3567;52.444;13.556;2023-04-30T00:02:54;3.03;;;1.40;;
7051;SDS011;3567;52.444;13.556;2023-04-30T00:05:19;5.03;;;1.85;;
7051;SDS011;3567;52.444;13.556;2023-04-30T00:07:45;3.85;;;1.48;;
7051;SDS011;3567;52.444;13.556;2023-04-30T00:10:10;5.13;;;1.60;;
7051;SDS011;3567;52.444;13.556;2023-04-30T00:12:36;5.05;;;1.38;;
7051;SDS011;3567;52.444;13.556;2023-04-30T00:15:02;4.05;;;1.00;;
7051;SDS011;3567;52.444;13.556;2023-04-30T00:17:27;3.67;;;1.40;;
7051;SDS011;3567;52.444;13.556;2023-04-30T00:19:53;3.50;;;1.17;;
7051;SDS011;3567;52.444;13.556;2023-04-30T00:22:18;3.75;;;1.30;;
7051;SDS011;3567;52.444;13.556;2023-04-30T00:24:43;2.28;;;1.88;;
7051;SDS011;3567;52.444;13.556;2023-04-30T00:27:09;2.80;;;1.48;;
7051;SDS011;3567;52.444;13.556;2023-04-30T00:29:34;1.45;;;1.30;;
7051;SDS011;3567;52.444;13.556;2023-04-30T00:32:00;5.95;;;1.88;;
7051;SDS011;3567;52.444;13.556;2023-04-30T00:34:25;4.05;;;1.15;;
7051;SDS011;3567;52.444;13.556;2023-04-30T00:36:50;4.28;;;1.75;;
7051;SDS011;3567;52.444;13.556;2023-04-30T00:39:16;3.88;;;1.65;;
7051;SDS011;3567;52.444;13.556;2023-04-30T00:41:41;1.60;;;1.20;;
7051;SDS011;3567;52.444;13.556;2023-04-30T00:44:07;2.20;;;1.40;;
7051;SDS011;3567;52.444;13.556;2023-04-30T00:46:32;6.40;;;1.10;;
7051;SDS011;3567;52.444;13.556;2023-04-30T00:48:57;4.45;;;1.45;;
7051;SDS011;3567;52.444;13.556;2023-04-30T00:51:26;3.33;;;0.82;;
7051;SDS011;3567;52.444;13.556;2023-04-30T00:53:53;3.72;;;1.80;;
7051;SDS011;3567;52.444;13.556;2023-04-30T00:56:18;1.90;;;0.93;;
7051;SDS011;3567;52.444;13.556;2023-04-30T00:58:44;4.65;;;2.15;;
7051;SDS011;3567;52.444;13.556;2023-04-30T01:01:09;2.58;;;1.25;;
7051;SDS011;3567;52.444;13.556;2023-04-30T01:03:35;3.30;;;1.33;;
7051;SDS011;3567;52.444;13.556;2023-04-30T01:06:01;3.92;;;1.48;;
7051;SDS011;3567;52.444;13.556;2023-04-30T01:08:27;3.78;;;1.30;;
7051;SDS011;3567;52.444;13.556;2023-04-30T01:10:56;3.85;;;1.85;;
7051;SDS011;3567;52.444;13.556;2023-04-30T01:14:26;4.47;;;2.10;;
7051;SDS011;3567;52.444;13.556;2023-04-30T01:16:53;5.93;;;1.80;;
7051;SDS011;3567;52.444;13.556;2023-04-30T01:19:33;3.13;;;1.60;;
7051;SDS011;3567;52.444;13.556;2023-04-30T01:22:03;10.32;;;2.75;;
7051;SDS011;3567;52.444;13.556;2023-04-30T01:24:37;5.18;;;1.90;;
7051;SDS011;3567;52.444;13.556;2023-04-30T01:29:55;6.95;;;2.08;;
7051;SDS011;3567;52.444;13.556;2023-04-30T01:32:21;3.15;;;1.58;;
7051;SDS011;3567;52.444;13.556;2023-04-30T01:34:47;6.60;;;1.80;;
7051;SDS011;3567;52.444;13.556;2023-04-30T01:42:12;4.97;;;1.25;;
7051;SDS011;3567;52.444;13.556;2023-04-30T01:44:53;5.35;;;1.45;;
7051;SDS011;3567;52.444;13.556;2023-04-30T01:47:56;7.25;;;1.35;;
7051;SDS011;3567;52.444;13.556;2023-04-30T01:50:29;7.25;;;1.42;;
7051;SDS011;3567;52.444;13.556;2023-04-30T01:53:08;7.13;;;1.48;;
7051;SDS011;3567;52.444;13.556;2023-04-30T01:55:52;4.10;;;1.38;;
7051;SDS011;3567;52.444;13.556;2023-04-30T01:58:22;5.88;;;1.55;;
7051;SDS011;3567;52.444;13.556;2023-04-30T02:00:48;4.88;;;2.28;;
7051;SDS011;3567;52.444;13.556;2023-04-30T02:03:14;5.47;;;1.60;;
7051;SDS011;3567;52.444;13.556;2023-04-30T02:05:39;7.38;;;1.50;;
7051;SDS011;3567;52.444;13.556;2023-04-30T02:08:05;7.25;;;2.78;;
7051;SDS011;3567;52.444;13.556;2023-04-30T02:10:31;6.15;;;1.52;;
7051;SDS011;3567;52.444;13.556;2023-04-30T02:12:56;11.43;;;1.75;;
7051;SDS011;3567;52.444;13.556;2023-04-30T02:15:21;6.75;;;2.00;;
7051;SDS011;3567;52.444;13.556;2023-04-30T02:17:47;5.95;;;1.80;;
7051;SDS011;3567;52.444;13.556;2023-04-30T02:20:12;4.95;;;1.42;;
7051;SDS011;3567;52.444;13.556;2023-04-30T02:22:38;7.22;;;1.70;;
7051;SDS011;3567;52.444;13.556;2023-04-30T02:25:03;3.80;;;1.42;;
7051;SDS011;3567;52.444;13.556;2023-04-30T02:27:30;5.95;;;1.55;;
7051;SDS011;3567;52.444;13.556;2023-04-30T02:29:56;6.93;;;1.83;;
7051;SDS011;3567;52.444;13.556;2023-04-30T02:32:22;5.10;;;1.35;;
7051;SDS011;3567;52.444;13.556;2023-04-30T02:34:47;8.45;;;1.80;;
7051;SDS011;3567;52.444;13.556;2023-04-30T02:37:13;9.25;;;2.05;;
7051;SDS011;3567;52.444;13.556;2023-04-30T02:39:38;4.45;;;2.08;;
7051;SDS011;3567;52.444;13.556;2023-04-30T02:42:04;11.52;;;2.13;;
7051;SDS011;3567;52.444;13.556;2023-04-30T02:44:30;4.18;;;1.60;;
7051;SDS011;3567;52.444;13.556;2023-04-30T02:46:56;6.55;;;2.00;;
7051;SDS011;3567;52.444;13.556;2023-04-30T02:49:21;6.22;;;2.95;;
7051;SDS011;3567;52.444;13.556;2023-04-30T02:51:47;10.07;;;2.03;;
7051;SDS011;3567;52.444;13.556;2023-04-30T02:54:12;11.95;;;2.72;;
7051;SDS011;3567;52.444;13.556;2023-04-30T02:56:37;6.60;;;1.92;;
7051;SDS011;3567;52.444;13.556;2023-04-30T02:59:03;4.35;;;1.77;;
7051;SDS011;3567;52.444;13.556;2023-04-30T03:01:29;6.93;;;2.30;;
7051;SDS011;3567;52.444;13.556;2023-04-30T03:03:54;4.20;;;1.85;;
7051;SDS011;3567;52.444;13.556;2023-04-30T03:06:19;13.45;;;2.95;;
7051;SDS011;3567;52.444;13.556;2023-04-30T03:08:45;7.47;;;2.20;;
7051;SDS011;3567;52.444;13.556;2023-04-30T03:11:10;9.95;;;2.40;;
7051;SDS011;3567;52.444;13.556;2023-04-30T03:13:35;10.52;;;3.20;;
7051;SDS011;3567;52.444;13.556;2023-04-30T03:16:01;4.97;;;2.60;;
7051;SDS011;3567;52.444;13.556;2023-04-30T03:18:31;6.32;;;2.30;;
7051;SDS011;3567;52.444;13.556;2023-04-30T03:20:57;8.10;;;2.08;;
7051;SDS011;3567;52.444;13.556;2023-04-30T03:23:22;11.35;;;2.50;;
7051;SDS011;3567;52.444;13.556;2023-04-30T03:25:48;6.80;;;2.40;;
7051;SDS011;3567;52.444;13.556;2023-04-30T03:28:14;9.50;;;2.25;;
7051;SDS011;3567;52.444;13.556;2023-04-30T03:30:39;9.35;;;2.33;;
7051;SDS011;3567;52.444;13.556;2023-04-30T03:33:05;7.80;;;2.33;;
7051;SDS011;3567;52.444;13.556;2023-04-30T03:35:31;10.73;;;2.20;;
7051;SDS011;3567;52.444;13.556;2023-04-30T03:37:57;7.43;;;2.50;;
7051;SDS011;3567;52.444;13.556;2023-04-30T03:40:23;5.43;;;1.83;;
7051;SDS011;3567;52.444;13.556;2023-04-30T03:42:48;8.52;;;1.77;;
7051;SDS011;3567;52.444;13.556;2023-04-30T03:45:14;6.32;;;2.40;;
7051;SDS011;3567;52.444;13.556;2023-04-30T03:47:40;6.32;;;2.55;;
7051;SDS011;3567;52.444;13.556;2023-04-30T03:50:07;9.18;;;2.20;;
7051;SDS011;3567;52.444;13.556;2023-04-30T03:52:33;8.77;;;2.08;;
7051;SDS011;3567;52.444;13.556;2023-04-30T03:55:00;5.28;;;2.22;;
7051;SDS011;3567;52.444;13.556;2023-04-30T03:57:26;6.38;;;1.95;;
7051;SDS011;3567;52.444;13.556;2023-04-30T03:59:51;14.27;;;2.42;;
7051;SDS011;3567;52.444;13.556;2023-04-30T04:02:17;8.77;;;2.53;;
7051;SDS011;3567;52.444;13.556;2023-04-30T04:04:42;10.55;;;2.40;;
7051;SDS011;3567;52.444;13.556;2023-04-30T04:07:08;9.88;;;3.30;;
7051;SDS011;3567;52.444;13.556;2023-04-30T04:09:35;9.40;;;2.50;;
7051;SDS011;3567;52.444;13.556;2023-04-30T04:12:00;6.15;;;2.70;;
7051;SDS011;3567;52.444;13.556;2023-04-30T04:14:26;7.18;;;2.38;;
7051;SDS011;3567;52.444;13.556;2023-04-30T04:16:52;6.97;;;1.92;;
7051;SDS011;3567;52.444;13.556;2023-04-30T04:19:17;7.70;;;2.40;;
7051;SDS011;3567;52.444;13.556;2023-04-30T04:21:43;6.40;;;2.22;;
7051;SDS011;3567;52.444;13.556;2023-04-30T04:24:08;9.52;;;2.20;;
7051;SDS011;3567;52.444;13.556;2023-04-30T04:26:36;10.88;;;2.35;;
7051;SDS011;3567;52.444;13.556;2023-04-30T04:29:02;12.90;;;2.22;;
7051;SDS011;3567;52.444;13.556;2023-04-30T04:31:28;7.65;;;2.22;;
7051;SDS011;3567;52.444;13.556;2023-04-30T04:33:55;6.20;;;2.15;;
7051;SDS011;3567;52.444;13.556;2023-04-30T04:36:25;8.55;;;2.65;;
7051;SDS011;3567;52.444;13.556;2023-04-30T04:38:52;5.95;;;2.55;;
7051;SDS011;3567;52.444;13.556;2023-04-30T04:41:27;5.88;;;2.05;;
7051;SDS011;3567;52.444;13.556;2023-04-30T04:43:53;14.90;;;2.97;;
7051;SDS011;3567;52.444;13.556;2023-04-30T04:46:18;8.30;;;2.50;;
7051;SDS011;3567;52.444;13.556;2023-04-30T04:48:44;7.40;;;2.35;;
7051;SDS011;3567;52.444;13.556;2023-04-30T04:51:10;7.15;;;2.70;;
7051;SDS011;3567;52.444;13.556;2023-04-30T04:53:36;9.23;;;2.72;;
7051;SDS011;3567;52.444;13.556;2023-04-30T04:56:01;6.35;;;2.30;;
7051;SDS011;3567;52.444;13.556;2023-04-30T04:58:27;5.45;;;2.60;;
7051;SDS011;3567;52.444;13.556;2023-04-30T05:00:52;13.77;;;2.97;;
7051;SDS011;3567;52.444;13.556;2023-04-30T05:03:18;10.77;;;2.80;;
7051;SDS011;3567;52.444;13.556;2023-04-30T05:05:45;9.18;;;3.33;;
7051;SDS011;3567;52.444;13.556;2023-04-30T05:08:10;9.90;;;3.03;;
7051;SDS011;3567;52.444;13.556;2023-04-30T05:10:36;7.55;;;2.60;;
7051;SDS011;3567;52.444;13.556;2023-04-30T05:13:01;10.38;;;2.42;;
7051;SDS011;3567;52.444;13.556;2023-04-30T05:15:26;8.68;;;2.90;;
7051;SDS011;3567;52.444;13.556;2023-04-30T05:17:52;5.85;;;2.72;;
7051;SDS011;3567;52.444;13.556;2023-04-30T05:20:17;7.57;;;3.35;;
7051;SDS011;3567;52.444;13.556;2023-04-30T05:22:42;6.30;;;2.28;;
7051;SDS011;3567;52.444;13.556;2023-04-30T05:25:08;6.57;;;2.53;;
7051;SDS011;3567;52.444;13.556;2023-04-30T05:27:33;6.82;;;2.10;;
7051;SDS011;3567;52.444;13.556;2023-04-30T05:30:00;9.80;;;3.08;;
7051;SDS011;3567;52.444;13.556;2023-04-30T05:32:25;11.52;;;2.90;;
7051;SDS011;3567;52.444;13.556;2023-04-30T05:34:51;13.85;;;2.42;;
7051;SDS011;3567;52.444;13.556;2023-04-30T05:37:17;11.27;;;2.88;;
7051;SDS011;3567;52.444;13.556;2023-04-30T05:39:44;7.85;;;3.17;;
7051;SDS011;3567;52.444;13.556;2023-04-30T05:42:10;8.38;;;2.70;;
7051;SDS011;3567;52.444;13.556;2023-04-30T05:44:35;7.30;;;3.00;;
7051;SDS011;3567;52.444;13.556;2023-04-30T05:47:00;14.63;;;3.08;;
7051;SDS011;3567;52.444;13.556;2023-04-30T05:49:26;7.05;;;2.53;;
7051;SDS011;3567;52.444;13.556;2023-04-30T05:51:51;8.27;;;2.50;;
7051;SDS011;3567;52.444;13.556;2023-04-30T05:54:16;13.45;;;2.95;;
7051;SDS011;3567;52.444;13.556;2023-04-30T05:56:42;8.57;;;2.92;;
7051;SDS011;3567;52.444;13.556;2023-04-30T05:59:07;18.25;;;3.85;;
7051;SDS011;3567;52.444;13.556;2023-04-30T06:01:32;7.45;;;2.83;;
7051;SDS011;3567;52.444;13.556;2023-04-30T06:03:58;12.25;;;3.00;;
7051;SDS011;3567;52.444;13.556;2023-04-30T06:06:25;9.05;;;3.03;;
7051;SDS011;3567;52.444;13.556;2023-04-30T06:08:52;9.18;;;2.60;;
7051;SDS011;3567;52.444;13.556;2023-04-30T06:11:17;7.65;;;3.05;;
7051;SDS011;3567;52.444;13.556;2023-04-30T06:13:42;9.48;;;2.92;;
7051;SDS011;3567;52.444;13.556;2023-04-30T06:16:08;15.85;;;2.90;;
7051;SDS011;3567;52.444;13.556;2023-04-30T06:18:33;11.07;;;2.72;;
7051;SDS011;3567;52.444;13.556;2023-04-30T06:20:59;9.77;;;2.70;;
7051;SDS011;3567;52.444;13.556;2023-04-30T06:23:24;8.70;;;2.55;;
7051;SDS011;3567;52.444;13.556;2023-04-30T06:25:50;10.88;;;3.05;;
7051;SDS011;3567;52.444;13.556;2023-04-30T06:28:15;10.00;;;2.88;;
7051;SDS011;3567;52.444;13.556;2023-04-30T06:30:40;5.50;;;2.33;;
7051;SDS011;3567;52.444;13.556;2023-04-30T06:33:06;8.82;;;2.78;;
7051;SDS011;3567;52.444;13.556;2023-04-30T06:35:31;9.35;;;2.88;;
7051;SDS011;3567;52.444;13.556;2023-04-30T06:37:57;11.35;;;2.97;;
7051;SDS011;3567;52.444;13.556;2023-04-30T06:40:22;8.05;;;2.50;;
7051;SDS011;3567;52.444;13.556;2023-04-30T06:42:48;12.23;;;2.85;;
7051;SDS011;3567;52.444;13.556;2023-04-30T06:45:13;8.32;;;3.22;;
7051;SDS011;3567;52.444;13.556;2023-04-30T06:47:41;7.55;;;3.30;;
7051;SDS011;3567;52.444;13.556;2023-04-30T06:50:07;10.18;;;3.08;;
7051;SDS011;3567;52.444;13.556;2023-04-30T06:52:33;12.07;;;3.33;;
7051;SDS011;3567;52.444;13.556;2023-04-30T06:54:58;10.00;;;3.05;;
7051;SDS011;3567;52.444;13.556;2023-04-30T06:57:23;7.22;;;2.75;;
7051;SDS011;3567;52.444;13.556;2023-04-30T06:59:49;9.68;;;3.22;;
7051;SDS011;3567;52.444;13.556;2023-04-30T07:02:15;6.72;;;2.70;;
7051;SDS011;3567;52.444;13.556;2023-04-30T07:04:40;9.05;;;2.50;;
7051;SDS011;3567;52.444;13.556;2023-04-30T07:07:06;10.95;;;3.40;;
7051;SDS011;3567;52.444;13.556;2023-04-30T07:09:31;9.45;;;2.75;;
7051;SDS011;3567;52.444;13.556;2023-04-30T07:11:57;12.70;;;4.10;;
7051;SDS011;3567;52.444;13.556;2023-04-30T07:14:22;4.63;;;2.80;;
7051;SDS011;3567;52.444;13.556;2023-04-30T07:16:51;5.47;;;3.53;;
7051;SDS011;3567;52.444;13.556;2023-04-30T07:19:17;8.57;;;2.97;;
7051;SDS011;3567;52.444;13.556;2023-04-30T07:21:42;10.63;;;3.33;;
7051;SDS011;3567;52.444;13.556;2023-04-30T07:24:08;7.63;;;2.33;;
7051;SDS011;3567;52.444;13.556;2023-04-30T07:26:33;13.88;;;3.75;;
7051;SDS011;3567;52.444;13.556;2023-04-30T07:28:59;7.03;;;2.78;;
7051;SDS011;3567;52.444;13.556;2023-04-30T07:31:25;9.30;;;3.22;;
7051;SDS011;3567;52.444;13.556;2023-04-30T07:33:51;7.93;;;2.30;;
7051;SDS011;3567;52.444;13.556;2023-04-30T07:36:16;8.25;;;3.13;;
7051;SDS011;3567;52.444;13.556;2023-04-30T07:38:42;9.63;;;3.70;;
7051;SDS011;3567;52.444;13.556;2023-04-30T07:41:07;11.18;;;3.35;;
7051;SDS011;3567;52.444;13.556;2023-04-30T07:43:33;11.18;;;3.08;;
7051;SDS011;3567;52.444;13.556;2023-04-30T07:45:59;11.15;;;3.35;;
7051;SDS011;3567;52.444;13.556;2023-04-30T07:48:25;5.93;;;3.15;;
7051;SDS011;3567;52.444;13.556;2023-04-30T07:50:50;7.05;;;2.75;;
7051;SDS011;3567;52.444;13.556;2023-04-30T07:53:16;8.32;;;3.03;;
7051;SDS011;3567;52.444;13.556;2023-04-30T07:55:41;8.38;;;3.13;;
7051;SDS011;3567;52.444;13.556;2023-04-30T07:58:06;11.15;;;3.50;;
7051;SDS011;3567;52.444;13.556;2023-04-30T08:00:32;12.07;;;3.63;;
7051;SDS011;3567;52.444;13.556;2023-04-30T08:02:57;12.35;;;3.15;;
7051;SDS011;3567;52.444;13.556;2023-04-30T08:05:24;7.00;;;2.88;;
7051;SDS011;3567;52.444;13.556;2023-04-30T08:07:50;9.90;;;3.10;;
7051;SDS011;3567;52.444;13.556;2023-04-30T08:10:15;7.60;;;3.33;;
7051;SDS011;3567;52.444;13.556;2023-04-30T08:12:41;11.30;;;2.63;;
7051;SDS011;3567;52.444;13.556;2023-04-30T08:15:07;8.63;;;2.88;;
7051;SDS011;3567;52.444;13.556;2023-04-30T08:17:32;9.10;;;1.95;;
7051;SDS011;3567;52.444;13.556;2023-04-30T08:19:59;5.40;;;1.70;;
7051;SDS011;3567;52.444;13.556;2023-04-30T08:22:25;10.75;;;2.22;;
7051;SDS011;3567;52.444;13.556;2023-04-30T08:24:50;3.90;;;2.03;;
7051;SDS011;3567;52.444;13.556;2023-04-30T08:27:16;7.28;;;2.25;;
7051;SDS011;3567;52.444;13.556;2023-04-30T08:29:41;7.43;;;1.60;;
7051;SDS011;3567;52.444;13.556;2023-04-30T08:32:07;3.45;;;1.73;;
7051;SDS011;3567;52.444;13.556;2023-04-30T08:34:33;7.30;;;2.13;;
7051;SDS011;3567;52.444;13.556;2023-04-30T08:36:59;5.45;;;2.28;;
7051;SDS011;3567;52.444;13.556;2023-04-30T08:39:24;7.63;;;2.13;;
7051;SDS011;3567;52.444;13.556;2023-04-30T08:41:54;7.35;;;2.42;;
7051;SDS011;3567;52.444;13.556;2023-04-30T08:44:20;6.10;;;2.17;;
7051;SDS011;3567;52.444;13.556;2023-04-30T08:46:53;8.75;;;2.53;;
7051;SDS011;3567;52.444;13.556;2023-04-30T08:49:22;5.43;;;2.28;;
7051;SDS011;3567;52.444;13.556;2023-04-30T08:51:49;4.13;;;1.95;;
7051;SDS011;3567;52.444;13.556;2023-04-30T08:54:15;6.88;;;2.25;;
7051;SDS011;3567;52.444;13.556;2023-04-30T08:56:41;4.93;;;1.60;;
7051;SDS011;3567;52.444;13.556;2023-04-30T08:59:07;5.80;;;2.10;;
7051;SDS011;3567;52.444;13.556;2023-04-30T09:01:33;6.15;;;2.30;;
7051;SDS011;3567;52.444;13.556;2023-04-30T09:03:59;3.00;;;1.15;;
7051;SDS011;3567;52.444;13.556;2023-04-30T09:06:26;3.97;;;2.25;;
7051;SDS011;3567;52.444;13.556;2023-04-30T09:08:52;6.45;;;2.30;;
7051;SDS011;3567;52.444;13.556;2023-04-30T09:11:25;3.45;;;1.95;;
7051;SDS011;3567;52.444;13.556;2023-04-30T09:13:59;6.75;;;1.70;;
7051;SDS011;3567;52.444;13.556;2023-04-30T09:16:27;2.50;;;1.13;;
7051;SDS011;3567;52.444;13.556;2023-04-30T09:19:24;5.05;;;1.60;;
7051;SDS011;3567;52.444;13.556;2023-04-30T09:21:51;6.38;;;1.40;;
7051;SDS011;3567;52.444;13.556;2023-04-30T09:24:17;3.47;;;1.83;;
7051;SDS011;3567;52.444;13.556;2023-04-30T09:26:43;5.15;;;2.40;;
7051;SDS011;3567;52.444;13.556;2023-04-30T09:29:11;5.10;;;2.50;;
7051;SDS011;3567;52.444;13.556;2023-04-30T09:31:36;8.63;;;2.70;;
7051;SDS011;3567;52.444;13.556;2023-04-30T09:34:03;6.18;;;2.65;;
7051;SDS011;3567;52.444;13.556;2023-04-30T09:36:29;4.05;;;1.60;;
7051;SDS011;3567;52.444;13.556;2023-04-30T09:38:55;5.68;;;2.08;;
7051;SDS011;3567;52.444;13.556;2023-04-30T09:41:25;6.22;;;2.00;;
7051;SDS011;3567;52.444;13.556;2023-04-30T09:43:55;11.00;;;2.47;;
7051;SDS011;3567;52.444;13.556;2023-04-30T09:46:21;2.85;;;1.63;;
7051;SDS011;3567;52.444;13.556;2023-04-30T09:48:58;6.55;;;1.98;;
7051;SDS011;3567;52.444;13.556;2023-04-30T09:51:25;6.03;;;1.70;;
7051;SDS011;3567;52.444;13.556;2023-04-30T09:53:51;5.55;;;1.85;;
7051;SDS011;3567;52.444;13.556;2023-04-30T09:56:21;6.20;;;1.75;;
7051;SDS011;3567;52.444;13.556;2023-04-30T09:58:51;2.35;;;1.35;;
7051;SDS011;3567;52.444;13.556;2023-04-30T10:01:22;1.92;;;1.23;;
7051;SDS011;3567;52.444;13.556;2023-04-30T10:03:53;2.53;;;1.42;;
7051;SDS011;3567;52.444;13.556;2023-04-30T10:06:20;5.15;;;1.90;;
7051;SDS011;3567;52.444;13.556;2023-04-30T10:08:46;11.32;;;2.75;;
7051;SDS011;3567;52.444;13.556;2023-04-30T10:11:19;3.75;;;2.15;;
7051;SDS011;3567;52.444;13.556;2023-04-30T10:13:52;4.60;;;1.92;;
7051;SDS011;3567;52.444;13.556;2023-04-30T10:18:57;3.75;;;1.42;;
7051;SDS011;3567;52.444;13.556;2023-04-30T10:21:27;3.95;;;1.80;;
7051;SDS011;3567;52.444;13.556;2023-04-30T10:23:53;5.95;;;1.95;;
7051;SDS011;3567;52.444;13.556;2023-04-30T10:26:19;4.70;;;1.70;;
7051;SDS011;3567;52.444;13.556;2023-04-30T10:28:45;1.98;;;1.35;;
7051;SDS011;3567;52.444;13.556;2023-04-30T10:31:14;3.85;;;1.58;;
7051;SDS011;3567;52.444;13.556;2023-04-30T10:33:52;3.38;;;1.95;;
7051;SDS011;3567;52.444;13.556;2023-04-30T10:36:28;7.57;;;1.58;;
7051;SDS011;3567;52.444;13.556;2023-04-30T10:39:01;5.65;;;1.40;;
7051;SDS011;3567;52.444;13.556;2023-04-30T10:41:27;1.98;;;1.02;;
7051;SDS011;3567;52.444;13.556;2023-04-30T10:43:56;3.72;;;1.38;;
7051;SDS011;3567;52.444;13.556;2023-04-30T10:46:23;4.43;;;1.60;;
7051;SDS011;3567;52.444;13.556;2023-04-30T10:48:51;2.47;;;1.52;;
7051;SDS011;3567;52.444;13.556;2023-04-30T10:51:18;3.38;;;1.65;;
7051;SDS011;3567;52.444;13.556;2023-04-30T10:53:44;2.50;;;1.30;;
7051;SDS011;3567;52.444;13.556;2023-04-30T10:56:14;3.60;;;1.45;;
7051;SDS011;3567;52.444;13.556;2023-04-30T10:58:57;3.80;;;1.52;;
7051;SDS011;3567;52.444;13.556;2023-04-30T11:01:25;3.13;;;1.35;;
7051;SDS011;3567;52.444;13.556;2023-04-30T11:04:08;2.85;;;1.73;;
7051;SDS011;3567;52.444;13.556;2023-04-30T11:09:18;7.20;;;1.40;;
7051;SDS011;3567;52.444;13.556;2023-04-30T11:11:49;2.90;;;1.48;;
7051;SDS011;3567;52.444;13.556;2023-04-30T11:14:26;2.20;;;1.60;;
7051;SDS011;3567;52.444;13.556;2023-04-30T11:16:56;4.80;;;1.48;;
7051;SDS011;3567;52.444;13.556;2023-04-30T11:19:25;5.60;;;1.80;;
7051;SDS011;3567;52.444;13.556;2023-04-30T11:27:28;3.38;;;1.92;;
7051;SDS011;3567;52.444;13.556;2023-04-30T11:29:55;5.43;;;1.45;;
7051;SDS011;3567;52.444;13.556;2023-04-30T11:32:22;3.35;;;1.35;;
7051;SDS011;3567;52.444;13.556;2023-04-30T11:34:50;6.65;;;1.40;;
7051;SDS011;3567;52.444;13.556;2023-04-30T11:37:19;2.47;;;1.42;;
7051;SDS011;3567;52.444;13.556;2023-04-30T11:39:46;5.40;;;1.80;;
7051;SDS011;3567;52.444;13.556;2023-04-30T11:42:16;2.13;;;1.55;;
7051;SDS011;3567;52.444;13.556;2023-04-30T11:44:43;5.93;;;1.88;;
7051;SDS011;3567;52.444;13.556;2023-04-30T11:47:09;3.78;;;1.45;;
7051;SDS011;3567;52.444;13.556;2023-04-30T11:49:35;2.90;;;1.60;;
7051;SDS011;3567;52.444;13.556;2023-04-30T11:52:01;3.10;;;1.77;;
7051;SDS011;3567;52.444;13.556;2023-04-30T11:54:29;2.55;;;1.50;;
7051;SDS011;3567;52.444;13.556;2023-04-30T11:56:56;5.00;;;1.55;;
7051;SDS011;3567;52.444;13.556;2023-04-30T11:59:27;2.00;;;1.70;;
7051;SDS011;3567;52.444;13.556;2023-04-30T12:01:53;2.50;;;1.40;;
7051;SDS011;3567;52.444;13.556;2023-04-30T12:04:18;6.43;;;1.70;;
7051;SDS011;3567;52.444;13.556;2023-04-30T12:06:44;3.70;;;1.60;;
7051;SDS011;3567;52.444;13.556;2023-04-30T12:09:09;3.72;;;1.45;;
7051;SDS011;3567;52.444;13.556;2023-04-30T12:11:36;7.53;;;1.83;;
7051;SDS011;3567;52.444;13.556;2023-04-30T12:14:04;4.30;;;1.50;;
7051;SDS011;3567;52.444;13.556;2023-04-30T12:16:41;5.60;;;1.67;;
7051;SDS011;3567;52.444;13.556;2023-04-30T12:19:13;4.47;;;1.50;;
7051;SDS011;3567;52.444;13.556;2023-04-30T12:21:40;6.20;;;1.80;;
7051;SDS011;3567;52.444;13.556;2023-04-30T12:24:12;3.60;;;1.70;;
7051;SDS011;3567;52.444;13.556;2023-04-30T12:26:42;2.58;;;1.50;;
7051;SDS011;3567;52.444;13.556;2023-04-30T12:29:08;3.53;;;1.67;;
7051;SDS011;3567;52.444;13.556;2023-04-30T12:31:39;1.85;;;1.58;;
7051;SDS011;3567;52.444;13.556;2023-04-30T12:34:06;3.53;;;1.50;;
7051;SDS011;3567;52.444;13.556;2023-04-30T12:36:32;2.80;;;1.50;;
7051;SDS011;3567;52.444;13.556;2023-04-30T12:39:21;4.97;;;1.73;;
7051;SDS011;3567;52.444;13.556;2023-04-30T12:41:47;5.03;;;1.92;;
7051;SDS011;3567;52.444;13.556;2023-04-30T12:46:42;5.07;;;2.03;;
7051;SDS011;3567;52.444;13.556;2023-04-30T12:49:10;28.17;;;2.90;;
7051;SDS011;3567;52.444;13.556;2023-04-30T12:51:36;4.10;;;1.38;;
7051;SDS011;3567;52.444;13.556;2023-04-30T12:54:05;4.68;;;1.52;;
7051;SDS011;3567;52.444;13.556;2023-04-30T12:56:30;2.80;;;1.45;;
7051;SDS011;3567;52.444;13.556;2023-04-30T12:58:56;5.85;;;1.77;;
7051;SDS011;3567;52.444;13.556;2023-04-30T13:01:21;3.40;;;1.98;;
7051;SDS011;3567;52.444;13.556;2023-04-30T13:03:48;4.93;;;1.42;;
7051;SDS011;3567;52.444;13.556;2023-04-30T13:06:14;5.72;;;1.63;;
7051;SDS011;3567;52.444;13.556;2023-04-30T13:08:40;4.25;;;1.80;;
7051;SDS011;3567;52.444;13.556;2023-04-30T13:11:05;5.30;;;1.55;;
7051;SDS011;3567;52.444;13.556;2023-04-30T13:13:30;6.57;;;1.73;;
7051;SDS011;3567;52.444;13.556;2023-04-30T13:15:56;3.50;;;1.83;;
7051;SDS011;3567;52.444;13.556;2023-04-30T13:18:22;3.70;;;1.67;;
7051;SDS011;3567;52.444;13.556;2023-04-30T13:20:47;6.50;;;1.83;;
7051;SDS011;3567;52.444;13.556;2023-04-30T13:23:12;4.78;;;2.03;;
7051;SDS011;3567;52.444;13.556;2023-04-30T13:25:38;2.60;;;1.63;;
7051;SDS011;3567;52.444;13.556;2023-04-30T13:28:04;3.75;;;1.65;;
7051;SDS011;3567;52.444;13.556;2023-04-30T13:30:30;8.82;;;1.77;;
7051;SDS011;3567;52.444;13.556;2023-04-30T13:32:55;5.43;;;1.92;;
7051;SDS011;3567;52.444;13.556;2023-04-30T13:35:22;4.10;;;1.55;;
7051;SDS011;3567;52.444;13.556;2023-04-30T13:37:47;4.88;;;1.60;;
7051;SDS011;3567;52.444;13.556;2023-04-30T13:40:13;3.85;;;1.73;;
7051;SDS011;3567;52.444;13.556;2023-04-30T13:42:40;5.43;;;2.55;;
7051;SDS011;3567;52.444;13.556;2023-04-30T13:45:07;7.43;;;3.38;;
7051;SDS011;3567;52.444;13.556;2023-04-30T13:47:33;13.85;;;8.65;;
7051;SDS011;3567;52.444;13.556;2023-04-30T13:49:59;4.65;;;1.85;;
7051;SDS011;3567;52.444;13.556;2023-04-30T13:52:25;5.38;;;2.17;;
7051;SDS011;3567;52.444;13.556;2023-04-30T13:54:50;4.55;;;1.77;;
7051;SDS011;3567;52.444;13.556;2023-04-30T13:57:16;4.50;;;1.50;;
7051;SDS011;3567;52.444;13.556;2023-04-30T13:59:42;5.40;;;2.00;;
7051;SDS011;3567;52.444;13.556;2023-04-30T14:02:07;2.97;;;1.70;;
7051;SDS011;3567;52.444;13.556;2023-04-30T14:04:33;2.60;;;1.70;;
7051;SDS011;3567;52.444;13.556;2023-04-30T14:06:58;4.38;;;2.10;;
7051;SDS011;3567;52.444;13.556;2023-04-30T14:09:24;4.85;;;2.05;;
7051;SDS011;3567;52.444;13.556;2023-04-30T14:11:49;7.43;;;1.70;;
7051;SDS011;3567;52.444;13.556;2023-04-30T14:14:15;4.65;;;2.00;;
7051;SDS011;3567;52.444;13.556;2023-04-30T14:16:40;2.38;;;1.67;;
7051;SDS011;3567;52.444;13.556;2023-04-30T14:19:08;5.28;;;1.80;;
7051;SDS011;3567;52.444;13.556;2023-04-30T14:21:33;3.55;;;1.67;;
7051;SDS011;3567;52.444;13.556;2023-04-30T14:23:59;5.63;;;1.92;;
7051;SDS011;3567;52.444;13.556;2023-04-30T14:26:24;3.05;;;1.52;;
7051;SDS011;3567;52.444;13.556;2023-04-30T14:28:49;4.00;;;1.85;;
7051;SDS011;3567;52.444;13.556;2023-04-30T14:31:15;3.65;;;1.58;;
7051;SDS011;3567;52.444;13.556;2023-04-30T14:33:40;3.22;;;1.70;;
7051;SDS011;3567;52.444;13.556;2023-04-30T14:36:06;1.88;;;1.67;;
7051;SDS011;3567;52.444;13.556;2023-04-30T14:38:32;4.25;;;1.90;;
7051;SDS011;3567;52.444;13.556;2023-04-30T14:40:57;3.15;;;1.42;;
7051;SDS011;3567;52.444;13.556;2023-04-30T14:43:22;6.07;;;2.03;;
7051;SDS011;3567;52.444;13.556;2023-04-30T14:45:48;4.03;;;1.58;;
7051;SDS011;3567;52.444;13.556;2023-04-30T14:48:14;2.58;;;1.60;;
7051;SDS011;3567;52.444;13.556;2023-04-30T14:50:39;3.75;;;1.50;;
7051;SDS011;3567;52.444;13.556;2023-04-30T14:53:05;1.70;;;1.00;;
7051;SDS011;3567;52.444;13.556;2023-04-30T14:55:31;6.55;;;2.03;;
7051;SDS011;3567;52.444;13.556;2023-04-30T14:57:57;2.65;;;1.20;;
7051;SDS011;3567;52.444;13.556;2023-04-30T15:00:23;3.47;;;1.67;;
7051;SDS011;3567;52.444;13.556;2023-04-30T15:02:48;2.35;;;1.30;;
7051;SDS011;3567;52.444;13.556;2023-04-30T15:05:14;9.98;;;1.60;;
7051;SDS011;3567;52.444;13.556;2023-04-30T15:07:39;3.30;;;1.65;;
7051;SDS011;3567;52.444;13.556;2023-04-30T15:10:05;3.63;;;1.67;;
7051;SDS011;3567;52.444;13.556;2023-04-30T15:12:31;3.40;;;1.63;;
7051;SDS011;3567;52.444;13.556;2023-04-30T15:14:58;2.53;;;1.30;;
7051;SDS011;3567;52.444;13.556;2023-04-30T15:17:24;2.15;;;1.38;;
7051;SDS011;3567;52.444;13.556;2023-04-30T15:19:49;3.47;;;1.70;;